Time;durP1;ratioP1;P1;durP2;ratioP2;P2;SDS_P1;SDS_P2;PMS_P1;PMS_P2;Temp;Humidity;BMP_temperature;BMP_pressure;BME280_temperature;BME280_humidity;BME280_pressure;Samples;Min_cycle;Max_cycle;Signal;HPM_P1;HPM_P2
2022/10/04 00:02:23;;;;;;;14.70;6.97;;;5.20;99.90;;;;;;4985637;28;20042;-76
2022/10/04 00:05:02;;;;;;;11.65;6.60;;;5.20;99.90;;;;;;4984447;28;20380;-73
2022/10/04 00:07:43;;;;;;;11.93;5.30;;;5.20;99.90;;;;;;4982699;28;20042;-74
2022/10/04 00:10:20;;;;;;;15.00;7.27;;;5.20;99.90;;;;;;4993560;28;20042;-72
2022/10/04 00:12:50;;;;;;;12.55;6.57;;;5.20;99.90;;;;;;4994354;28;20031;-73
2022/10/04 00:15:24;;;;;;;10.05;5.82;;;5.10;99.90;;;;;;4992845;28;20049;-74
2022/10/04 00:18:10;;;;;;;10.27;6.38;;;5.00;99.90;;;;;;4993551;28;20050;-71
2022/10/04 00:20:52;;;;;;;14.48;5.30;;;4.90;99.90;;;;;;4993399;28;20491;-73
2022/10/04 00:23:27;;;;;;;12.75;5.35;;;4.90;99.90;;;;;;4993896;28;20030;-73
2022/10/04 00:26:03;;;;;;;11.63;6.25;;;5.00;99.90;;;;;;4994310;28;20050;-72
2022/10/04 00:28:35;;;;;;;12.52;6.72;;;5.00;99.90;;;;;;4992491;28;20045;-72
2022/10/04 00:31:37;;;;;;;13.38;5.97;;;4.90;99.90;;;;;;4994434;28;20464;-72
2022/10/04 00:34:06;;;;;;;13.30;7.13;;;5.00;99.90;;;;;;4971048;28;20487;-72
2022/10/04 00:36:44;;;;;;;13.85;7.15;;;4.90;99.90;;;;;;4993755;28;20045;-73
2022/10/04 00:39:15;;;;;;;13.93;7.22;;;4.80;99.90;;;;;;4993075;28;20045;-73
2022/10/04 00:41:48;;;;;;;15.93;6.35;;;4.80;99.90;;;;;;4972935;28;20050;-72
2022/10/04 00:44:46;;;;;;;14.38;6.40;;;4.80;99.90;;;;;;4992340;28;20045;-72
2022/10/04 00:47:19;;;;;;;15.93;7.15;;;4.80;99.90;;;;;;4992580;28;20046;-73
2022/10/04 00:49:51;;;;;;;13.07;6.78;;;4.80;99.90;;;;;;4993652;28;20057;-73
2022/10/04 00:52:26;;;;;;;11.75;6.18;;;4.70;99.90;;;;;;4991745;28;20093;-74
2022/10/04 00:54:57;;;;;;;13.88;6.90;;;4.70;99.90;;;;;;4993553;28;20045;-73
2022/10/04 00:57:35;;;;;;;11.45;6.30;;;4.70;99.90;;;;;;4991308;28;20036;-74
2022/10/04 01:00:06;;;;;;;14.23;6.00;;;4.60;99.90;;;;;;4993348;28;20038;-72
2022/10/04 01:02:45;;;;;;;9.40;4.97;;;4.50;99.90;;;;;;4991587;28;20030;-73
2022/10/04 01:05:23;;;;;;;10.85;5.25;;;4.50;99.90;;;;;;4993802;28;20038;-74
2022/10/04 01:08:08;;;;;;;13.50;6.25;;;4.50;99.90;;;;;;4989277;28;20042;-72
2022/10/04 01:10:50;;;;;;;11.15;7.38;;;4.50;99.90;;;;;;5010207;28;20041;-72
2022/10/04 01:13:25;;;;;;;13.88;6.30;;;4.50;99.90;;;;;;5005194;28;20034;-71
2022/10/04 01:16:16;;;;;;;35.08;15.10;;;4.50;99.90;;;;;;4987310;28;20045;-72
2022/10/04 01:18:42;;;;;;;38.45;17.77;;;4.40;99.90;;;;;;4989756;28;20106;-73
2022/10/04 01:21:18;;;;;;;19.85;9.75;;;4.40;99.90;;;;;;4991061;28;20054;-72
2022/10/04 01:23:47;;;;;;;17.20;9.10;;;4.40;99.90;;;;;;4991614;28;20038;-72
2022/10/04 01:26:42;;;;;;;18.75;9.13;;;4.40;99.90;;;;;;4991457;28;20484;-73
2022/10/04 01:29:37;;;;;;;16.17;7.22;;;4.50;99.90;;;;;;4991567;28;20388;-73
2022/10/04 01:32:04;;;;;;;12.80;6.90;;;4.60;99.90;;;;;;4975202;28;20387;-73
2022/10/04 01:34:30;;;;;;;11.98;6.28;;;4.50;99.90;;;;;;4985652;28;20034;-72
2022/10/04 01:36:59;;;;;;;19.13;9.10;;;4.50;99.90;;;;;;4991682;28;20045;-72
2022/10/04 01:39:27;;;;;;;14.40;7.25;;;4.50;99.90;;;;;;4990688;28;20057;-73
2022/10/04 01:41:53;;;;;;;13.13;6.00;;;4.50;99.90;;;;;;4992537;28;20026;-72
2022/10/04 01:44:48;;;;;;;12.05;7.05;;;4.50;99.90;;;;;;5006302;28;20042;-77
2022/10/04 01:47:34;;;;;;;16.42;5.85;;;4.40;99.90;;;;;;4990683;28;20057;-73
2022/10/04 01:50:07;;;;;;;13.00;5.78;;;4.30;99.90;;;;;;4992372;28;20057;-73
2022/10/04 01:52:46;;;;;;;12.52;6.10;;;4.30;99.90;;;;;;4992267;28;20355;-72
2022/10/04 01:55:21;;;;;;;11.57;6.25;;;4.20;99.90;;;;;;4992526;28;20377;-72
2022/10/04 01:57:57;;;;;;;8.10;4.90;;;4.10;99.90;;;;;;4985730;28;20387;-72
2022/10/04 02:00:24;;;;;;;11.18;5.78;;;4.00;99.90;;;;;;4991763;28;20379;-73
2022/10/04 02:02:56;;;;;;;13.00;5.82;;;4.00;99.90;;;;;;4993013;28;20061;-73
2022/10/04 02:05:28;;;;;;;10.23;5.68;;;4.10;99.90;;;;;;4991760;28;20041;-73
2022/10/04 02:07:55;;;;;;;14.40;5.97;;;4.10;99.90;;;;;;4990889;28;20069;-73
2022/10/04 02:10:24;;;;;;;10.45;5.72;;;4.00;99.90;;;;;;4991924;28;20035;-73
2022/10/04 02:12:53;;;;;;;12.90;6.38;;;4.10;99.90;;;;;;4992534;28;20045;-73
2022/10/04 02:15:25;;;;;;;16.13;6.45;;;4.10;99.90;;;;;;4991825;28;20037;-75
2022/10/04 02:17:54;;;;;;;13.10;6.68;;;4.00;99.90;;;;;;4990843;28;20050;-72
2022/10/04 02:20:24;;;;;;;12.73;6.43;;;4.00;99.90;;;;;;4991606;28;20053;-78
2022/10/04 02:22:55;;;;;;;11.45;5.53;;;4.10;99.90;;;;;;4992431;28;20041;-73
2022/10/04 02:25:22;;;;;;;10.65;5.97;;;4.10;99.90;;;;;;4992087;28;20038;-73
2022/10/04 02:27:53;;;;;;;10.35;5.35;;;3.90;99.90;;;;;;4989320;28;20519;-72
2022/10/04 02:30:22;;;;;;;10.32;5.93;;;3.80;99.90;;;;;;4992057;28;20393;-72
2022/10/04 02:33:01;;;;;;;11.10;6.18;;;3.80;99.90;;;;;;4992420;28;20353;-73
2022/10/04 02:35:42;;;;;;;13.85;5.80;;;3.90;99.90;;;;;;4991707;28;20038;-73
2022/10/04 02:38:12;;;;;;;11.90;5.82;;;4.00;99.90;;;;;;4992287;28;20057;-72
2022/10/04 02:40:42;;;;;;;14.00;6.57;;;4.00;99.90;;;;;;4994449;28;20042;-72
2022/10/04 02:43:15;;;;;;;11.97;5.73;;;4.00;99.90;;;;;;4996319;28;20383;-72
2022/10/04 02:45:48;;;;;;;12.07;6.25;;;4.10;99.90;;;;;;5004426;28;20285;-72
2022/10/04 02:48:32;;;;;;;8.30;4.78;;;4.00;99.90;;;;;;4994343;28;20399;-73
2022/10/04 02:51:16;;;;;;;17.40;6.25;;;4.00;99.90;;;;;;4996108;28;20444;-73
2022/10/04 02:53:50;;;;;;;11.45;6.57;;;4.00;99.90;;;;;;4995548;28;20052;-72
2022/10/04 02:56:17;;;;;;;10.43;5.82;;;4.00;99.90;;;;;;4995064;28;20046;-73
2022/10/04 02:58:44;;;;;;;15.80;5.97;;;4.00;99.90;;;;;;4993784;28;20034;-72
2022/10/04 03:01:42;;;;;;;10.10;5.13;;;4.00;99.90;;;;;;4995599;28;20039;-73
2022/10/04 03:04:13;;;;;;;12.18;6.88;;;4.00;99.90;;;;;;4994227;28;20045;-73
2022/10/04 03:06:42;;;;;;;14.13;5.53;;;4.00;99.90;;;;;;4994710;28;20042;-72
2022/10/04 03:09:08;;;;;;;12.40;6.47;;;3.90;99.90;;;;;;4993813;28;20038;-73
2022/10/04 03:11:39;;;;;;;11.95;5.97;;;3.80;99.90;;;;;;4995038;28;20026;-73
2022/10/04 03:14:19;;;;;;;11.68;5.47;;;3.70;99.90;;;;;;4995748;28;20033;-73
2022/10/04 03:16:49;;;;;;;9.90;5.07;;;3.60;99.90;;;;;;4993831;28;20034;-73
2022/10/04 03:19:17;;;;;;;13.85;5.68;;;3.80;99.90;;;;;;4994269;28;20456;-72
2022/10/04 03:21:46;;;;;;;11.77;5.55;;;3.90;99.90;;;;;;4994666;28;20041;-72
2022/10/04 03:24:20;;;;;;;10.18;5.53;;;3.90;99.90;;;;;;4995025;28;20393;-73
2022/10/04 03:26:55;;;;;;;11.70;4.95;;;4.00;99.90;;;;;;4994299;28;20387;-74
2022/10/04 03:29:26;;;;;;;13.75;5.90;;;3.90;99.90;;;;;;4994121;28;20042;-73
2022/10/04 03:31:57;;;;;;;15.63;6.38;;;3.90;99.90;;;;;;4995372;28;20490;-73
2022/10/04 03:34:30;;;;;;;12.73;5.93;;;3.90;99.90;;;;;;4994557;28;20030;-75
2022/10/04 03:36:58;;;;;;;13.68;6.90;;;3.90;99.90;;;;;;4994283;28;20037;-73
2022/10/04 03:39:37;;;;;;;11.43;5.95;;;3.90;99.90;;;;;;4993012;28;20049;-76
2022/10/04 03:42:10;;;;;;;9.80;5.45;;;3.80;99.90;;;;;;4995021;28;20030;-72
2022/10/04 03:44:37;;;;;;;12.85;6.18;;;3.90;99.90;;;;;;4993482;28;20487;-72
2022/10/04 03:47:10;;;;;;;11.27;6.13;;;3.80;99.90;;;;;;4993387;28;20049;-72
2022/10/04 03:49:37;;;;;;;16.48;6.53;;;3.80;99.90;;;;;;4993683;28;20050;-72
2022/10/04 03:52:04;;;;;;;12.65;7.43;;;3.70;99.90;;;;;;5009044;28;20034;-72
2022/10/04 03:54:32;;;;;;;10.88;6.50;;;3.80;99.90;;;;;;4987933;28;20037;-73
2022/10/04 03:56:59;;;;;;;11.20;5.72;;;3.80;99.90;;;;;;4993788;28;20026;-71
2022/10/04 03:59:27;;;;;;;10.27;5.90;;;3.80;99.90;;;;;;4993645;28;20030;-76
2022/10/04 04:02:19;;;;;;;12.35;6.00;;;3.90;99.90;;;;;;4994351;28;20045;-71
2022/10/04 04:05:02;;;;;;;13.63;6.35;;;3.90;99.90;;;;;;4993530;28;20060;-70
2022/10/04 04:07:36;;;;;;;12.27;6.60;;;3.90;99.90;;;;;;4992847;28;20042;-70
2022/10/04 04:10:12;;;;;;;16.45;9.68;;;4.00;99.90;;;;;;4994303;28;20045;-70
2022/10/04 04:12:42;;;;;;;18.90;10.00;;;4.00;99.90;;;;;;4993764;28;20038;-69
2022/10/04 04:15:13;;;;;;;27.23;13.98;;;4.10;99.90;;;;;;4993919;28;20352;-71
2022/10/04 04:17:45;;;;;;;38.50;15.20;;;4.20;99.90;;;;;;4992660;28;20034;-72
2022/10/04 04:20:19;;;;;;;34.50;12.05;;;4.30;99.90;;;;;;4992876;28;20061;-71
2022/10/04 04:23:05;;;;;;;30.20;12.90;;;4.30;99.90;;;;;;4990864;28;20026;-71
2022/10/04 04:25:37;;;;;;;25.33;11.02;;;4.40;99.90;;;;;;4993007;28;20037;-72
2022/10/04 04:28:23;;;;;;;27.38;12.48;;;4.50;99.90;;;;;;4993350;28;20042;-70
2022/10/04 04:30:57;;;;;;;22.77;11.25;;;4.60;99.90;;;;;;4993162;28;20041;-71
2022/10/04 04:33:32;;;;;;;44.88;11.23;;;4.60;99.90;;;;;;4992836;28;20034;-71
2022/10/04 04:36:09;;;;;;;33.42;12.80;;;4.60;99.90;;;;;;4993460;28;20038;-71
2022/10/04 04:39:32;;;;;;;24.60;10.95;;;4.80;99.90;;;;;;4992238;28;20046;-71
2022/10/04 04:41:23;;;;;;;38.85;13.05;;;4.80;99.90;;;;;;4993913;28;20035;-72
2022/10/04 04:43:50;;;;;;;19.40;9.68;;;4.90;99.90;;;;;;4993256;28;20026;-71
2022/10/04 04:46:16;;;;;;;23.20;10.50;;;4.90;99.90;;;;;;4993465;28;20482;-71
2022/10/04 04:48:44;;;;;;;15.00;8.27;;;5.00;99.90;;;;;;4990175;28;20057;-71
2022/10/04 04:51:23;;;;;;;17.45;9.95;;;5.00;99.90;;;;;;4993653;28;20101;-72
2022/10/04 04:53:51;;;;;;;18.25;8.32;;;5.10;99.90;;;;;;4991847;28;20424;-71
2022/10/04 04:56:22;;;;;;;15.98;9.10;;;5.00;99.90;;;;;;4992962;28;20034;-71
2022/10/04 04:58:50;;;;;;;18.88;9.23;;;5.00;99.90;;;;;;4988746;28;20037;-71
2022/10/04 05:01:31;;;;;;;24.05;10.05;;;5.00;99.90;;;;;;4993072;28;20042;-71
2022/10/04 05:04:12;;;;;;;17.92;8.75;;;5.00;99.90;;;;;;4993146;28;20030;-70
2022/10/04 05:07:05;;;;;;;18.35;8.55;;;5.10;99.90;;;;;;4992196;28;20387;-72
2022/10/04 05:09:39;;;;;;;18.77;8.13;;;5.10;99.90;;;;;;4989900;28;20066;-73
2022/10/04 05:12:06;;;;;;;16.27;8.43;;;5.10;99.90;;;;;;4992805;28;20142;-71
2022/10/04 05:14:37;;;;;;;21.55;10.55;;;5.10;99.90;;;;;;4990487;28;20030;-72
2022/10/04 05:17:05;;;;;;;20.85;10.00;;;5.20;99.90;;;;;;4991288;28;20049;-71
2022/10/04 05:19:35;;;;;;;17.52;9.43;;;5.20;99.90;;;;;;4992697;28;20034;-72
2022/10/04 05:22:09;;;;;;;18.63;9.68;;;5.10;99.90;;;;;;5008436;28;20038;-71
2022/10/04 05:24:44;;;;;;;19.52;10.93;;;5.10;99.90;;;;;;5006558;28;20033;-72
2022/10/04 05:27:18;;;;;;;24.33;10.32;;;5.10;99.90;;;;;;4991582;28;20053;-71
2022/10/04 05:30:13;;;;;;;24.52;9.65;;;5.10;99.90;;;;;;4991116;28;20046;-72
2022/10/04 05:32:46;;;;;;;18.70;8.75;;;5.10;99.90;;;;;;4991340;28;20047;-72
2022/10/04 05:35:21;;;;;;;19.45;9.40;;;5.10;99.90;;;;;;4992629;28;20053;-72
2022/10/04 05:38:03;;;;;;;22.52;10.63;;;5.10;99.90;;;;;;4990996;28;20039;-71
2022/10/04 05:40:38;;;;;;;18.40;9.43;;;5.10;99.90;;;;;;4987055;28;20042;-73
2022/10/04 05:43:21;;;;;;;23.27;9.88;;;5.10;99.90;;;;;;4992843;28;20034;-72
2022/10/04 05:46:25;;;;;;;25.08;10.60;;;5.10;99.90;;;;;;4991813;28;20132;-70
2022/10/04 05:49:01;;;;;;;23.88;10.52;;;5.10;99.90;;;;;;4989386;28;20483;-71
2022/10/04 05:51:31;;;;;;;23.17;10.15;;;5.10;99.90;;;;;;4992472;28;20488;-71
2022/10/04 05:54:00;;;;;;;18.73;9.63;;;5.10;99.90;;;;;;4991930;28;20047;-72
2022/10/04 05:56:56;;;;;;;18.83;10.15;;;5.20;99.90;;;;;;4992831;28;20027;-72
2022/10/04 05:59:46;;;;;;;18.02;9.00;;;5.30;99.90;;;;;;4992303;28;20038;-72
2022/10/04 06:02:53;;;;;;;15.90;7.95;;;5.30;99.90;;;;;;4992732;28;20064;-72
2022/10/04 06:05:34;;;;;;;21.23;9.23;;;5.30;99.90;;;;;;4991922;28;20046;-71
2022/10/04 06:08:26;;;;;;;15.82;8.07;;;5.40;99.90;;;;;;4991313;28;20395;-72
2022/10/04 06:11:08;;;;;;;14.30;7.25;;;5.30;99.90;;;;;;4991550;28;20046;-71
2022/10/04 06:14:00;;;;;;;20.20;10.43;;;5.30;99.90;;;;;;4994183;28;20098;-72
2022/10/04 06:17:03;;;;;;;20.70;9.18;;;5.30;99.90;;;;;;4996368;28;20042;-71
2022/10/04 06:20:11;;;;;;;19.88;9.27;;;5.30;99.90;;;;;;4996733;28;20034;-72
2022/10/04 06:22:56;;;;;;;17.85;8.98;;;5.40;99.90;;;;;;4995667;28;20034;-72
2022/10/04 06:25:32;;;;;;;28.98;11.43;;;5.50;99.90;;;;;;5010319;28;20042;-71
2022/10/04 06:28:17;;;;;;;22.30;8.20;;;5.60;99.90;;;;;;4995235;28;20061;-71
2022/10/04 06:30:56;;;;;;;18.63;7.55;;;5.70;99.90;;;;;;4995688;28;20042;-71
2022/10/04 06:33:47;;;;;;;15.68;7.30;;;5.80;99.90;;;;;;4996109;28;20034;-72
2022/10/04 06:36:46;;;;;;;14.10;7.22;;;5.80;99.90;;;;;;4995675;28;20038;-70
2022/10/04 06:39:24;;;;;;;10.95;6.60;;;5.80;99.90;;;;;;4995668;28;20034;-72
2022/10/04 06:42:07;;;;;;;17.42;8.10;;;5.80;99.90;;;;;;4995500;28;20043;-72
2022/10/04 06:45:03;;;;;;;17.90;7.20;;;5.90;99.90;;;;;;4995149;28;20030;-77
2022/10/04 06:48:03;;;;;;;19.95;7.70;;;5.90;99.90;;;;;;4994745;28;20030;-72
2022/10/04 06:50:41;;;;;;;16.88;7.95;;;5.90;99.90;;;;;;4994601;28;20042;-71
2022/10/04 06:53:16;;;;;;;16.88;8.10;;;6.00;99.90;;;;;;4995961;28;20395;-72
2022/10/04 06:56:36;;;;;;;20.60;8.27;;;6.10;99.90;;;;;;4994864;28;20050;-73
2022/10/04 06:59:10;;;;;;;22.15;8.27;;;6.30;99.90;;;;;;4972016;28;20054;-72
2022/10/04 07:01:47;;;;;;;24.58;7.43;;;6.40;99.90;;;;;;4995457;28;20035;-71
2022/10/04 07:04:40;;;;;;;26.48;8.05;;;6.30;99.90;;;;;;4995211;28;20034;-71
2022/10/04 07:07:23;;;;;;;20.75;8.65;;;6.40;99.90;;;;;;4994507;28;20137;-71
2022/10/04 07:09:58;;;;;;;23.88;9.05;;;6.40;99.90;;;;;;4995128;28;20038;-71
2022/10/04 07:12:26;;;;;;;26.45;9.82;;;6.50;99.90;;;;;;4995435;28;20034;-72
2022/10/04 07:14:58;;;;;;;23.15;9.70;;;6.50;99.90;;;;;;4994255;28;20041;-72
2022/10/04 07:17:41;;;;;;;25.73;9.85;;;6.50;99.90;;;;;;4994709;28;20045;-71
2022/10/04 07:20:21;;;;;;;22.45;8.10;;;6.70;99.90;;;;;;4995278;28;20043;-72
2022/10/04 07:22:55;;;;;;;20.97;9.43;;;6.70;99.90;;;;;;4994595;28;20045;-72
2022/10/04 07:25:41;;;;;;;11.98;7.13;;;6.70;99.90;;;;;;4995221;28;20038;-72
2022/10/04 07:31:09;;;;;;;13.85;8.52;;;7.00;99.90;;;;;;4993433;28;20039;-72
2022/10/04 07:33:51;;;;;;;22.95;8.68;;;7.30;99.90;;;;;;4994634;28;20026;-77
2022/10/04 07:36:28;;;;;;;18.10;7.53;;;7.50;99.90;;;;;;4995125;28;20391;-72
2022/10/04 07:39:09;;;;;;;16.80;8.07;;;7.40;99.90;;;;;;4993956;28;20468;-72
2022/10/04 07:41:53;;;;;;;19.52;7.65;;;7.60;99.90;;;;;;4994545;28;20045;-70
2022/10/04 07:44:26;;;;;;;19.08;7.40;;;7.60;99.90;;;;;;4994576;28;20026;-71
2022/10/04 07:47:02;;;;;;;12.73;6.85;;;7.70;99.90;;;;;;4993230;28;20038;-73
2022/10/04 07:49:35;;;;;;;11.32;6.60;;;7.80;99.90;;;;;;4989478;28;20534;-70
2022/10/04 07:52:22;;;;;;;12.60;6.07;;;8.10;99.90;;;;;;4994002;28;20042;-72
2022/10/04 07:55:09;;;;;;;11.43;7.65;;;8.10;99.90;;;;;;4993993;28;20057;-72
2022/10/04 07:57:35;;;;;;;17.17;7.22;;;8.30;99.90;;;;;;4989260;28;20400;-72
2022/10/04 08:00:16;;;;;;;10.63;5.55;;;8.10;99.90;;;;;;4994224;28;20034;-72
2022/10/04 08:03:16;;;;;;;10.32;5.60;;;8.20;99.90;;;;;;4994296;28;20038;-71
2022/10/04 08:05:53;;;;;;;9.10;6.28;;;8.50;99.90;;;;;;4993558;28;20041;-72
2022/10/04 08:08:53;;;;;;;7.88;5.18;;;8.60;99.90;;;;;;4993403;28;20476;-72
2022/10/04 08:11:26;;;;;;;9.05;5.45;;;8.80;99.90;;;;;;4994560;28;20038;-71
2022/10/04 08:13:58;;;;;;;10.40;5.85;;;9.30;99.90;;;;;;4993560;28;20412;-73
2022/10/04 08:16:45;;;;;;;9.20;5.30;;;9.30;99.90;;;;;;4992890;28;20037;-71
2022/10/04 08:19:36;;;;;;;7.38;4.97;;;9.40;99.90;;;;;;4994168;28;20045;-71
2022/10/04 08:22:17;;;;;;;8.63;6.05;;;9.80;99.90;;;;;;4992859;28;20038;-72
2022/10/04 08:25:01;;;;;;;7.82;4.60;;;10.00;99.90;;;;;;4993244;28;20114;-72
2022/10/04 08:31:14;;;;;;;7.47;5.20;;;10.10;99.90;;;;;;4993347;28;20057;-71
2022/10/04 08:33:52;;;;;;;8.20;5.60;;;10.50;99.90;;;;;;4992590;28;20042;-72
2022/10/04 08:36:36;;;;;;;9.80;5.38;;;10.70;99.90;;;;;;4992623;28;20030;-72
2022/10/04 08:39:10;;;;;;;10.43;6.00;;;10.50;99.90;;;;;;4992984;28;20054;-71
2022/10/04 08:42:06;;;;;;;7.63;5.40;;;10.50;99.90;;;;;;4993689;28;20039;-71
2022/10/04 08:44:48;;;;;;;7.30;5.43;;;10.60;99.90;;;;;;4993177;28;20046;-71
2022/10/04 08:47:51;;;;;;;9.85;5.75;;;11.00;99.90;;;;;;4992821;28;20030;-72
2022/10/04 08:50:37;;;;;;;10.40;6.25;;;11.00;99.90;;;;;;4974224;28;20043;-72
2022/10/04 08:53:21;;;;;;;9.15;6.10;;;11.10;99.90;;;;;;4973683;28;20046;-72
2022/10/04 08:56:16;;;;;;;12.10;8.00;;;11.20;99.90;;;;;;4973554;28;20058;-72
2022/10/04 08:59:11;;;;;;;11.52;7.05;;;12.10;99.90;;;;;;4971767;28;20050;-73
2022/10/04 09:01:37;;;;;;;13.52;8.35;;;12.60;99.90;;;;;;4952328;28;20050;-72
2022/10/04 09:04:25;;;;;;;13.85;8.25;;;12.70;99.90;;;;;;4973675;28;20369;-72
2022/10/04 09:06:57;;;;;;;13.15;7.68;;;12.50;99.90;;;;;;4971486;28;20042;-72
2022/10/04 09:09:41;;;;;;;13.05;8.88;;;12.30;99.90;;;;;;4974126;28;20042;-72
2022/10/04 09:12:17;;;;;;;12.02;8.25;;;12.70;99.90;;;;;;4974084;28;20034;-72
2022/10/04 09:15:02;;;;;;;12.10;8.40;;;12.50;99.90;;;;;;4972921;28;20045;-72
2022/10/04 09:17:56;;;;;;;13.07;8.45;;;12.70;99.90;;;;;;4972371;28;20054;-72
2022/10/04 09:20:32;;;;;;;18.95;11.15;;;12.80;99.90;;;;;;4973814;28;20034;-71
2022/10/04 09:23:01;;;;;;;19.08;11.10;;;12.70;99.90;;;;;;4973019;28;20038;-73
2022/10/04 09:25:30;;;;;;;18.58;11.43;;;12.80;99.90;;;;;;4973187;28;20034;-70
2022/10/04 09:28:14;;;;;;;17.60;10.63;;;12.80;99.90;;;;;;4971904;28;20054;-71
2022/10/04 09:30:59;;;;;;;18.80;10.63;;;12.60;99.90;;;;;;4973030;28;20046;-76
2022/10/04 09:34:03;;;;;;;19.30;11.82;;;12.80;99.90;;;;;;4982664;28;20031;-70
2022/10/04 09:37:00;;;;;;;19.90;12.55;;;12.90;99.90;;;;;;4985068;28;20047;-73
2022/10/04 09:39:48;;;;;;;26.42;13.95;;;13.00;99.90;;;;;;4973380;28;20035;-70
2022/10/04 09:42:50;;;;;;;20.85;14.25;;;13.30;99.90;;;;;;4973292;28;20380;-71
2022/10/04 09:45:34;;;;;;;19.83;13.38;;;13.60;99.90;;;;;;4937103;28;20044;-72
2022/10/04 09:48:24;;;;;;;21.15;13.48;;;13.30;99.90;;;;;;4967574;28;20372;-71
2022/10/04 09:51:06;;;;;;;27.40;14.95;;;13.20;99.90;;;;;;4992327;28;20041;-71
2022/10/04 09:54:05;;;;;;;29.05;14.27;;;13.50;99.90;;;;;;4992557;28;20037;-71
2022/10/04 09:57:00;;;;;;;27.33;15.60;;;14.00;99.90;;;;;;4991763;28;20042;-71
2022/10/04 09:59:36;;;;;;;21.88;11.65;;;14.20;99.90;;;;;;4990922;28;20050;-70
2022/10/04 10:02:27;;;;;;;17.85;10.93;;;14.40;99.90;;;;;;4992071;28;20372;-71
2022/10/04 10:05:11;;;;;;;18.88;11.57;;;14.30;99.90;;;;;;4991714;28;20030;-72
2022/10/04 10:07:50;;;;;;;21.65;11.95;;;14.10;99.90;;;;;;4991710;28;20041;-72
2022/10/04 10:13:51;;;;;;;18.33;10.15;;;14.70;99.90;;;;;;4992826;28;20042;-72
2022/10/04 10:16:40;;;;;;;17.27;11.45;;;14.90;99.90;;;;;;4986677;28;20034;-73
2022/10/04 10:19:20;;;;;;;10.20;6.95;;;14.60;99.90;;;;;;4991813;28;20419;-71
2022/10/04 10:22:20;;;;;;;10.93;6.23;;;14.70;99.90;;;;;;4992041;28;20035;-72
2022/10/04 10:25:05;;;;;;;10.23;6.38;;;14.90;99.90;;;;;;4988290;28;20037;-71
2022/10/04 10:27:40;;;;;;;8.32;5.25;;;14.90;99.90;;;;;;4990956;28;20030;-70
2022/10/04 10:30:45;;;;;;;8.57;4.65;;;15.00;99.90;;;;;;4991267;28;20480;-72
2022/10/04 10:33:23;;;;;;;9.48;5.03;;;15.00;99.90;;;;;;4991192;28;20046;-71
2022/10/04 10:36:28;;;;;;;12.70;4.78;;;14.90;99.90;;;;;;4991510;28;20027;-71
2022/10/04 10:39:16;;;;;;;9.27;5.20;;;14.80;99.90;;;;;;4991618;28;20038;-72
2022/10/04 10:42:13;;;;;;;11.73;6.15;;;15.10;99.90;;;;;;5007062;28;20046;-71
2022/10/04 10:45:09;;;;;;;10.65;4.07;;;15.20;99.90;;;;;;4991788;28;20031;-71
2022/10/04 10:47:50;;;;;;;5.70;3.65;;;15.30;99.90;;;;;;4990017;28;20042;-71
2022/10/04 10:50:59;;;;;;;7.43;3.95;;;15.40;99.90;;;;;;4991822;28;20061;-71
2022/10/04 10:53:47;;;;;;;9.48;4.55;;;15.60;99.90;;;;;;4992115;28;20038;-71
2022/10/04 10:56:22;;;;;;;5.22;3.22;;;15.70;99.90;;;;;;4991355;28;20041;-73
2022/10/04 10:59:01;;;;;;;8.68;3.53;;;15.80;99.90;;;;;;4992196;28;20049;-71
2022/10/04 11:01:40;;;;;;;6.68;3.17;;;15.60;99.90;;;;;;4996338;28;20034;-72
2022/10/04 11:04:30;;;;;;;8.18;2.92;;;15.60;99.90;;;;;;4994525;28;20384;-71
2022/10/04 11:07:33;;;;;;;4.30;2.50;;;15.40;99.90;;;;;;4994352;28;20448;-72
2022/10/04 11:10:25;;;;;;;5.40;2.35;;;15.50;99.90;;;;;;4994853;28;20046;-72
2022/10/04 11:13:35;;;;;;;6.65;2.40;;;15.70;99.90;;;;;;4994862;28;20034;-72
2022/10/04 11:16:49;;;;;;;3.80;2.05;;;15.90;99.90;;;;;;4994996;28;20383;-71
2022/10/04 11:20:04;;;;;;;4.43;2.25;;;15.90;99.90;;;;;;4952539;28;20093;-71
2022/10/04 11:23:09;;;;;;;7.43;2.45;;;16.30;99.90;;;;;;4958996;28;20050;-70
2022/10/04 11:26:14;;;;;;;6.40;2.25;;;16.50;99.90;;;;;;4955186;28;20409;-71
2022/10/04 11:28:56;;;;;;;6.57;2.05;;;16.70;99.90;;;;;;5009396;28;20042;-71
2022/10/04 11:31:50;;;;;;;3.90;2.13;;;17.00;99.90;;;;;;4995410;28;20363;-70
2022/10/04 11:34:58;;;;;;;6.03;1.50;;;17.10;99.90;;;;;;4994588;28;20030;-71
2022/10/04 11:37:49;;;;;;;6.70;2.55;;;17.10;99.80;;;;;;4992553;28;20053;-70
2022/10/04 11:40:50;;;;;;;4.65;2.00;;;17.10;99.90;;;;;;4995060;28;20034;-71
2022/10/04 11:43:51;;;;;;;5.20;1.65;;;16.80;98.60;;;;;;4934631;29;20035;-70
2022/10/04 11:46:36;;;;;;;;;;;16.50;99.90;;;;;;4992411;28;20046;-71
2022/10/04 11:49:41;;;;;;;5.68;2.13;;;16.80;99.90;;;;;;4994000;28;20371;-70
2022/10/04 11:52:35;;;;;;;8.55;2.15;;;16.90;99.90;;;;;;4971181;28;20512;-72
2022/10/04 11:55:41;;;;;;;8.73;2.45;;;16.90;98.70;;;;;;4986219;28;20035;-71
2022/10/04 11:58:15;;;;;;;4.13;2.00;;;16.70;99.10;;;;;;4971552;28;20051;-72
2022/10/04 12:01:07;;;;;;;4.40;1.88;;;16.80;99.80;;;;;;4994388;28;20037;-70
2022/10/04 12:04:16;;;;;;;4.18;2.00;;;16.80;99.90;;;;;;4994881;28;20053;-71
2022/10/04 12:07:07;;;;;;;7.57;3.05;;;17.10;99.90;;;;;;4993047;28;20035;-70
2022/10/04 12:09:52;;;;;;;8.48;2.28;;;17.10;99.60;;;;;;4965985;28;20531;-71
2022/10/04 12:12:43;;;;;;;6.47;2.53;;;17.10;99.90;;;;;;4994641;28;20045;-71
2022/10/04 12:15:51;;;;;;;7.47;2.70;;;17.30;99.90;;;;;;4992465;28;20038;-71
2022/10/04 12:18:18;;;;;;;7.50;2.63;;;17.50;99.50;;;;;;4993190;28;20034;-72
2022/10/04 12:21:05;;;;;;;4.75;1.90;;;17.20;98.10;;;;;;4994028;28;20098;-71
2022/10/04 12:23:42;;;;;;;3.47;1.88;;;17.10;99.90;;;;;;4994308;28;20053;-71
2022/10/04 12:26:36;;;;;;;4.20;1.83;;;17.30;98.10;;;;;;4991909;28;20027;-72
2022/10/04 12:29:21;;;;;;;6.53;2.00;;;17.30;97.00;;;;;;4993547;28;20042;-70
2022/10/04 12:31:55;;;;;;;4.38;2.10;;;17.50;98.80;;;;;;4993826;28;20034;-71
2022/10/04 12:34:53;;;;;;;3.95;1.77;;;17.60;97.00;;;;;;4993304;28;20111;-71
2022/10/04 12:37:40;;;;;;;4.30;2.20;;;17.70;96.90;;;;;;4994200;28;20106;-71
2022/10/04 12:40:42;;;;;;;5.95;2.58;;;17.60;96.70;;;;;;4993169;28;20034;-72
2022/10/04 12:43:26;;;;;;;5.50;1.88;;;17.70;98.20;;;;;;4993285;28;20039;-70
2022/10/04 12:46:20;;;;;;;5.03;1.80;;;17.90;97.50;;;;;;4991581;28;20038;-72
2022/10/04 12:49:08;;;;;;;4.28;2.10;;;17.90;97.90;;;;;;4993509;28;20067;-71
2022/10/04 12:52:02;;;;;;;6.05;1.65;;;17.90;96.00;;;;;;4988203;28;20038;-71
2022/10/04 12:54:51;;;;;;;3.28;1.90;;;17.80;95.20;;;;;;4992390;28;20333;-72
2022/10/04 12:57:24;;;;;;;6.00;1.85;;;17.90;95.80;;;;;;4993793;28;20030;-72
2022/10/04 13:00:03;;;;;;;7.15;2.55;;;18.00;95.70;;;;;;5002947;28;20387;-71
2022/10/04 13:03:07;;;;;;;3.38;1.50;;;18.20;97.10;;;;;;4994755;28;20049;-71
2022/10/04 13:05:46;;;;;;;4.50;2.05;;;18.30;95.80;;;;;;4992178;28;20033;-71
2022/10/04 13:08:36;;;;;;;4.00;1.70;;;18.30;95.20;;;;;;4988404;28;20129;-70
2022/10/04 13:11:22;;;;;;;4.00;2.45;;;18.30;95.60;;;;;;4992702;28;20038;-71
2022/10/04 13:14:14;;;;;;;5.00;2.22;;;18.10;94.40;;;;;;4993280;28;20034;-73
2022/10/04 13:16:43;;;;;;;3.50;1.77;;;18.10;93.90;;;;;;4989000;28;20468;-71
2022/10/04 13:19:22;;;;;;;7.30;2.38;;;18.00;95.20;;;;;;4992766;28;20455;-71
2022/10/04 13:22:14;;;;;;;3.55;1.50;;;18.10;96.40;;;;;;4992933;28;20034;-72
2022/10/04 13:24:56;;;;;;;6.07;1.95;;;18.40;94.70;;;;;;4991578;28;20038;-71
2022/10/04 13:27:44;;;;;;;7.22;1.77;;;18.70;94.60;;;;;;4992105;28;20038;-71
2022/10/04 13:30:31;;;;;;;3.38;1.50;;;18.70;93.40;;;;;;4992254;28;20043;-72
2022/10/04 13:33:12;;;;;;;4.93;1.88;;;18.60;93.20;;;;;;4992669;28;20039;-71
2022/10/04 13:35:39;;;;;;;4.32;1.90;;;18.50;93.90;;;;;;4990147;28;20042;-70
2022/10/04 13:38:44;;;;;;;4.20;1.63;;;18.60;93.00;;;;;;4990681;28;20387;-71
2022/10/04 13:41:19;;;;;;;4.97;2.25;;;18.60;93.30;;;;;;4983983;28;20047;-71
2022/10/04 13:44:11;;;;;;;3.05;1.40;;;18.70;93.10;;;;;;4995701;28;20057;-70
2022/10/04 13:46:59;;;;;;;3.72;1.55;;;18.60;93.30;;;;;;4996902;28;20041;-70
2022/10/04 13:49:28;;;;;;;4.93;1.35;;;18.80;93.20;;;;;;5007210;28;20053;-73
2022/10/04 13:58:30;;;;;;;3.92;1.85;;;18.60;90.80;;;;;;4991667;28;20046;-72
2022/10/04 14:01:33;;;;;;;3.28;1.77;;;18.60;92.90;;;;;;4986226;28;20038;-74
2022/10/04 14:04:22;;;;;;;5.22;2.28;;;18.80;91.50;;;;;;4991787;28;20034;-72
2022/10/04 14:07:24;;;;;;;3.95;1.77;;;18.90;91.50;;;;;;4992681;28;20041;-74
2022/10/04 14:10:21;;;;;;;5.38;1.60;;;18.70;90.50;;;;;;4992105;28;20042;-73
2022/10/04 14:13:22;;;;;;;3.53;1.85;;;18.60;90.70;;;;;;4992413;28;20384;-74
2022/10/04 14:16:32;;;;;;;4.18;1.40;;;18.60;91.30;;;;;;4988341;28;20050;-74
2022/10/04 14:19:26;;;;;;;5.75;1.67;;;18.60;91.50;;;;;;4970981;28;20494;-74